Terminal Aerodrome Forecast
Issued by NWS Louisville, KY

Home | Current Version | Previous Version | Text Only | Print | Product List | Glossary On
Versions: 1 2 3 4 5 6 7 8 9 10 11 12 13 14 15 16 17 18 19 20
000
FTUS43 KLMK 090600 AAA
TAFBWG
TAF AMD
KBWG 090600Z 0906/1006 24007KT P6SM VCTS SCT050CB BKN250
      TEMPO 0907/0908 2SM -TSRA BKN040CB
     FM090900 27002KT 6SM BR BKN250
     FM091400 29009KT P6SM SCT050=

USA.gov is the U.S. government's official web portal to all federal, state and local government web resources and services.